You are not logged in, Click here to log in
濟州國際機場 / RKPC 韓國濟州島濟州市
ICAO: RKPC Country: 韓國濟州島濟州市
Latitude: 33.5104 Longitude: 126.491
Total Arrivals: 30 Total Departures: 30
Latest Arrival: FE1688 (RCSS-RKPC)CHUANYI. Lin Latest Departure: FE1788 (RKPC-RCSS)CHUANYI. Lin
Scenery:
METAR : RKPC 131000Z 15003KT 360V150 CAVOK 09/05 Q1026 NOSIG

濟州國際機場

You are accessing this site from IP address 100.26.176.182. Virtual Airline. CMS by phpVMS.Website designed by Zumeweb and edited by Theo Bearman.
There is 0 User(s) Online: | and 13 Guest(s) Online.
All information on this site is for fight simulation purposes only. This site is for flight logging for pilots of Virtual Airline&模擬飛行論壇 FlySim only.